Time;durP1;ratioP1;P1;durP2;ratioP2;P2;SDS_P1;SDS_P2;PMS_P1;PMS_P2;Temp;Humidity;BMP_temperature;BMP_pressure;BME280_temperature;BME280_humidity;BME280_pressure;Samples;Min_cycle;Max_cycle;Signal;HPM_P1;HPM_P2
2022/07/07 00:01:58;;;;;;;16.30;8.60;;;16.50;99.90;;;;;;5073377;28;20040;-88
2022/07/07 00:04:24;;;;;;;13.65;8.38;;;16.50;99.90;;;;;;5068002;28;20029;-88
2022/07/07 00:06:50;;;;;;;13.93;8.73;;;16.50;99.90;;;;;;5102099;28;20048;-88
2022/07/07 00:09:15;;;;;;;13.02;8.43;;;16.50;99.90;;;;;;5098590;28;20191;-88
2022/07/07 00:11:42;;;;;;;15.10;8.77;;;16.50;99.90;;;;;;5107753;28;20049;-88
2022/07/07 00:14:09;;;;;;;14.77;8.40;;;16.50;99.90;;;;;;5070757;28;20052;-88
2022/07/07 00:16:36;;;;;;;13.98;8.45;;;16.40;99.90;;;;;;5060928;28;20120;-87
2022/07/07 00:19:02;;;;;;;15.43;9.73;;;16.50;99.90;;;;;;5066937;28;20115;-87
2022/07/07 00:21:28;;;;;;;15.15;8.57;;;16.50;99.90;;;;;;5066371;28;20051;-87
2022/07/07 00:23:55;;;;;;;18.90;9.23;;;16.50;99.90;;;;;;5101008;28;20124;-88
2022/07/07 00:26:21;;;;;;;14.52;9.00;;;16.40;99.90;;;;;;5063010;28;20049;-87
2022/07/07 00:28:49;;;;;;;15.80;9.52;;;16.40;99.90;;;;;;5101132;28;20122;-88
2022/07/07 00:31:15;;;;;;;17.63;9.18;;;16.40;99.90;;;;;;5057462;28;20049;-87
2022/07/07 00:33:40;;;;;;;12.30;7.22;;;16.40;99.90;;;;;;5072975;28;20051;-87
2022/07/07 00:36:07;;;;;;;13.02;9.05;;;16.40;99.90;;;;;;5062219;28;20064;-87
2022/07/07 00:38:34;;;;;;;19.13;9.35;;;16.40;99.90;;;;;;5069655;28;20078;-87
2022/07/07 00:41:00;;;;;;;14.95;8.60;;;16.40;99.90;;;;;;5069789;28;20476;-88
2022/07/07 00:43:26;;;;;;;14.48;9.25;;;16.40;99.90;;;;;;5071548;28;20070;-88
2022/07/07 00:45:52;;;;;;;13.57;10.00;;;16.40;99.90;;;;;;5067175;28;20416;-88
2022/07/07 00:48:18;;;;;;;13.40;8.75;;;16.80;99.90;;;;;;5079748;28;20052;-87
2022/07/07 00:50:45;;;;;;;13.75;8.90;;;16.40;99.90;;;;;;5067932;28;20404;-88
2022/07/07 00:53:11;;;;;;;17.40;9.25;;;16.40;99.90;;;;;;5071696;28;20045;-88
2022/07/07 00:55:39;;;;;;;13.10;8.95;;;16.60;99.90;;;;;;5069938;28;20044;-88
2022/07/07 00:58:05;;;;;;;14.70;8.50;;;16.30;99.90;;;;;;5064191;28;20052;-88
2022/07/07 01:00:31;;;;;;;13.40;8.50;;;16.40;99.90;;;;;;5092673;28;20041;-87
2022/07/07 01:02:57;;;;;;;13.15;7.30;;;16.30;99.90;;;;;;5063905;28;20045;-88
2022/07/07 01:05:24;;;;;;;14.85;7.93;;;16.30;99.90;;;;;;5072491;28;20492;-88
2022/07/07 01:07:51;;;;;;;17.70;7.43;;;16.30;99.90;;;;;;5061605;28;20094;-88
2022/07/07 01:10:17;;;;;;;12.20;7.22;;;16.60;99.90;;;;;;5072968;28;20671;-87
2022/07/07 01:12:43;;;;;;;11.68;6.15;;;16.30;99.90;;;;;;5100853;28;20044;-87
2022/07/07 01:15:11;;;;;;;9.95;6.03;;;16.30;99.90;;;;;;5063722;28;20128;-87
2022/07/07 01:17:38;;;;;;;12.75;5.40;;;16.30;99.90;;;;;;5056861;28;20056;-88
2022/07/07 01:20:06;;;;;;;8.55;5.22;;;16.30;99.90;;;;;;5071889;28;20040;-88
2022/07/07 01:22:35;;;;;;;10.20;4.93;;;16.20;99.90;;;;;;5074450;28;20116;-88
2022/07/07 01:25:01;;;;;;;9.30;5.55;;;16.20;99.90;;;;;;5077516;28;20059;-88
2022/07/07 01:27:27;;;;;;;7.30;4.68;;;16.20;99.90;;;;;;5073592;28;20049;-88
2022/07/07 01:29:54;;;;;;;10.55;4.70;;;16.20;99.90;;;;;;5106369;28;20098;-88
2022/07/07 01:32:21;;;;;;;7.35;4.70;;;16.20;99.90;;;;;;5106184;28;20059;-88
2022/07/07 01:34:48;;;;;;;5.95;3.90;;;16.20;99.90;;;;;;5067298;28;20041;-89
2022/07/07 01:37:14;;;;;;;5.63;3.75;;;16.20;99.90;;;;;;5060818;28;20574;-89
2022/07/07 01:39:42;;;;;;;8.15;4.47;;;16.20;99.90;;;;;;5077711;28;20048;-89
2022/07/07 01:42:09;;;;;;;7.80;3.75;;;16.10;99.90;;;;;;5049543;28;20094;-92
2022/07/07 01:44:37;;;;;;;5.43;3.00;;;16.10;99.90;;;;;;5075746;28;20940;-90
2022/07/07 01:47:04;;;;;;;8.20;3.50;;;16.10;99.90;;;;;;5065388;28;20080;-91
2022/07/07 01:49:31;;;;;;;6.53;3.17;;;16.10;99.90;;;;;;5110649;28;20080;-88
2022/07/07 01:51:58;;;;;;;8.27;3.05;;;16.10;99.90;;;;;;5076535;28;20040;-90
2022/07/07 01:54:25;;;;;;;6.30;3.05;;;16.10;99.90;;;;;;5094509;28;20475;-89
2022/07/07 01:56:51;;;;;;;6.90;3.05;;;16.00;99.90;;;;;;5075143;28;20052;-91
2022/07/07 01:59:17;;;;;;;5.82;3.00;;;16.10;99.90;;;;;;5095170;28;20056;-90
2022/07/07 02:01:43;;;;;;;4.60;2.80;;;16.10;99.90;;;;;;5066172;28;20045;-88
2022/07/07 02:04:09;;;;;;;8.48;3.88;;;16.10;99.90;;;;;;5078149;28;20055;-90
2022/07/07 02:06:35;;;;;;;7.53;3.28;;;16.10;99.90;;;;;;5074488;28;20040;-91
2022/07/07 02:09:00;;;;;;;9.10;3.60;;;16.10;99.90;;;;;;5075127;28;20047;-90
2022/07/07 02:11:27;;;;;;;6.78;3.70;;;15.90;99.90;;;;;;5066906;28;20084;-90
2022/07/07 02:13:53;;;;;;;7.07;2.97;;;16.00;99.90;;;;;;5077339;28;20102;-89
2022/07/07 02:16:21;;;;;;;7.10;3.22;;;16.00;99.90;;;;;;5074252;28;20052;-89
2022/07/07 02:18:48;;;;;;;9.95;3.63;;;16.00;99.90;;;;;;5073562;28;20037;-90
2022/07/07 02:21:15;;;;;;;10.57;4.20;;;16.00;99.90;;;;;;5065085;28;20053;-90
2022/07/07 02:23:43;;;;;;;10.32;3.50;;;16.00;99.90;;;;;;5060973;28;20041;-88
2022/07/07 02:26:09;;;;;;;8.23;3.25;;;16.00;99.90;;;;;;5071083;28;20069;-88
2022/07/07 02:28:35;;;;;;;8.23;3.97;;;16.00;99.90;;;;;;5072054;28;20048;-90
2022/07/07 02:31:01;;;;;;;9.43;3.42;;;16.00;99.90;;;;;;5070754;28;20044;-89
2022/07/07 02:33:27;;;;;;;9.15;3.60;;;16.00;99.90;;;;;;5071744;28;20136;-89
2022/07/07 02:35:54;;;;;;;7.95;3.80;;;16.00;99.90;;;;;;5064719;28;20060;-89
2022/07/07 02:38:21;;;;;;;8.95;3.83;;;16.00;99.90;;;;;;5058631;28;20049;-89
2022/07/07 02:40:47;;;;;;;8.85;3.78;;;16.00;99.90;;;;;;5074488;28;20055;-89
2022/07/07 02:43:13;;;;;;;10.60;3.97;;;16.00;99.90;;;;;;5061905;28;20053;-89
2022/07/07 02:45:43;;;;;;;8.15;3.80;;;16.00;99.90;;;;;;5072052;28;20083;-90
2022/07/07 02:48:10;;;;;;;12.00;4.28;;;16.00;99.90;;;;;;5104750;27;20049;-90
2022/07/07 02:50:37;;;;;;;10.20;3.42;;;16.40;99.90;;;;;;5067573;28;20446;-89
2022/07/07 02:53:03;;;;;;;10.95;4.18;;;16.00;99.90;;;;;;5057294;28;20618;-89
2022/07/07 02:55:30;;;;;;;8.20;3.17;;;16.00;99.90;;;;;;5093082;28;20044;-90
2022/07/07 02:57:56;;;;;;;10.95;3.15;;;16.00;99.90;;;;;;5065022;28;20045;-90
2022/07/07 03:00:22;;;;;;;7.55;2.90;;;16.00;99.90;;;;;;5102538;27;20048;-90
2022/07/07 03:02:48;;;;;;;10.73;3.03;;;16.00;99.90;;;;;;5107254;28;20075;-91
2022/07/07 03:05:14;;;;;;;7.80;3.10;;;16.00;99.90;;;;;;5069141;27;20086;-91
2022/07/07 03:07:39;;;;;;;10.60;3.45;;;16.00;99.90;;;;;;5057359;28;20052;-92
2022/07/07 03:10:06;;;;;;;9.25;2.78;;;16.40;99.90;;;;;;5068564;28;20629;-90
2022/07/07 03:12:32;;;;;;;7.53;2.90;;;16.00;99.90;;;;;;5069190;28;20072;-92
2022/07/07 03:14:58;;;;;;;10.75;2.30;;;16.00;99.90;;;;;;5081074;28;20055;-91
2022/07/07 03:17:24;;;;;;;6.18;2.50;;;16.00;99.90;;;;;;5096796;27;20044;-91
2022/07/07 03:19:49;;;;;;;9.20;2.20;;;16.00;99.90;;;;;;5106237;28;20049;-91
2022/07/07 03:22:15;;;;;;;6.07;1.88;;;16.00;99.90;;;;;;5103752;28;20040;-91
2022/07/07 03:24:41;;;;;;;9.38;2.10;;;16.00;99.90;;;;;;5076687;28;20067;-92
2022/07/07 03:27:06;;;;;;;7.80;2.55;;;16.00;99.90;;;;;;5072593;28;20036;-90
2022/07/07 03:29:35;;;;;;;8.63;2.30;;;16.00;99.90;;;;;;5061901;28;20492;-90
2022/07/07 03:32:00;;;;;;;6.75;2.50;;;16.00;99.90;;;;;;5042736;28;20102;-91
2022/07/07 03:34:26;;;;;;;12.13;2.35;;;16.00;99.90;;;;;;5069394;28;20044;-91
2022/07/07 03:36:52;;;;;;;10.73;2.58;;;16.00;99.90;;;;;;5069176;28;20075;-91
2022/07/07 03:39:18;;;;;;;10.93;1.90;;;16.00;99.90;;;;;;5070081;28;20037;-91
2022/07/07 03:41:43;;;;;;;9.27;2.78;;;15.90;99.90;;;;;;5056651;28;20541;-90
2022/07/07 03:44:10;;;;;;;12.90;2.88;;;15.90;99.90;;;;;;5058684;28;20055;-90
2022/07/07 03:46:35;;;;;;;6.53;2.55;;;15.90;99.90;;;;;;5057625;28;20041;-90
2022/07/07 03:49:01;;;;;;;8.80;2.20;;;15.90;99.90;;;;;;5056553;28;20120;-89
2022/07/07 03:51:27;;;;;;;7.95;1.75;;;15.90;99.90;;;;;;5066971;28;20045;-91
2022/07/07 03:53:52;;;;;;;7.78;2.15;;;15.90;99.90;;;;;;5075691;28;20040;-89
2022/07/07 03:56:18;;;;;;;7.70;2.00;;;15.90;99.90;;;;;;5071712;28;20048;-91
2022/07/07 03:58:44;;;;;;;6.47;1.90;;;15.90;99.90;;;;;;5067919;28;20055;-89
2022/07/07 04:01:09;;;;;;;7.80;1.70;;;15.90;99.90;;;;;;5060912;28;20037;-91
2022/07/07 04:03:37;;;;;;;11.38;1.73;;;15.80;99.90;;;;;;5068773;28;20043;-90
2022/07/07 04:06:04;;;;;;;9.13;1.63;;;15.80;99.90;;;;;;5066277;28;20049;-89
2022/07/07 04:08:30;;;;;;;4.70;1.30;;;15.80;99.90;;;;;;5074580;28;20040;-91
2022/07/07 04:10:55;;;;;;;9.32;1.42;;;15.80;99.90;;;;;;5068637;28;20116;-89
2022/07/07 04:13:21;;;;;;;6.13;1.13;;;15.80;99.90;;;;;;5059725;28;20037;-91
2022/07/07 04:15:47;;;;;;;14.75;1.70;;;15.70;99.90;;;;;;5056537;28;20059;-89
2022/07/07 04:18:12;;;;;;;7.85;0.98;;;15.70;99.90;;;;;;5099074;28;20040;-89
2022/07/07 04:20:38;;;;;;;7.13;1.25;;;15.70;99.90;;;;;;5076515;28;20049;-92
2022/07/07 04:23:03;;;;;;;10.07;1.50;;;15.70;99.90;;;;;;5076637;28;20041;-92
2022/07/07 04:25:29;;;;;;;8.55;1.38;;;15.70;99.90;;;;;;5074288;28;20483;-93
2022/07/07 04:27:55;;;;;;;9.70;1.27;;;15.70;99.90;;;;;;5078192;28;20040;-91
2022/07/07 04:30:21;;;;;;;15.85;2.65;;;15.70;99.90;;;;;;5074060;28;20131;-92
2022/07/07 04:32:47;;;;;;;7.05;1.10;;;15.70;99.90;;;;;;5065756;28;20045;-90
2022/07/07 04:35:12;;;;;;;13.48;1.50;;;15.70;99.90;;;;;;5076081;28;20052;-92
2022/07/07 04:37:38;;;;;;;13.70;1.88;;;15.60;99.90;;;;;;5062026;28;20045;-90
2022/07/07 04:40:04;;;;;;;12.95;1.45;;;15.60;99.90;;;;;;5092689;28;20056;-89
2022/07/07 04:42:30;;;;;;;7.15;1.50;;;15.60;99.90;;;;;;5062524;28;20488;-90
2022/07/07 04:44:56;;;;;;;7.75;1.00;;;15.60;99.90;;;;;;5088796;28;20045;-89
2022/07/07 04:47:22;;;;;;;10.10;1.40;;;15.60;99.90;;;;;;5051368;28;20041;-91
2022/07/07 04:49:50;;;;;;;8.65;1.10;;;15.60;99.90;;;;;;5057956;28;20041;-90
2022/07/07 04:52:15;;;;;;;6.95;1.25;;;15.50;99.90;;;;;;5062929;28;20124;-89
2022/07/07 04:54:41;;;;;;;13.15;1.75;;;15.90;99.90;;;;;;5067369;28;20127;-89
2022/07/07 04:57:06;;;;;;;9.88;1.58;;;15.60;99.90;;;;;;5062979;28;20094;-88
2022/07/07 04:59:32;;;;;;;11.27;1.35;;;15.60;99.90;;;;;;5094673;28;20056;-90
2022/07/07 05:01:57;;;;;;;10.68;1.67;;;15.60;99.90;;;;;;5092946;28;20037;-88
2022/07/07 05:04:23;;;;;;;10.35;1.25;;;15.60;99.90;;;;;;5078386;28;20058;-88
2022/07/07 05:06:48;;;;;;;9.98;1.45;;;15.60;99.90;;;;;;5086732;28;20040;-85
2022/07/07 05:09:14;;;;;;;14.13;1.50;;;15.60;99.90;;;;;;5077363;28;20396;-87
2022/07/07 05:11:40;;;;;;;8.15;1.30;;;15.60;99.90;;;;;;5062132;28;20480;-86
2022/07/07 05:14:05;;;;;;;6.90;1.30;;;15.50;99.90;;;;;;5061087;28;20098;-88
2022/07/07 05:16:31;;;;;;;11.25;1.63;;;15.50;99.90;;;;;;5108391;27;20040;-86
2022/07/07 05:18:56;;;;;;;8.80;1.15;;;15.50;99.90;;;;;;5070945;28;20090;-87
2022/07/07 05:21:22;;;;;;;6.45;1.35;;;15.50;99.90;;;;;;5070043;28;20516;-85
2022/07/07 05:23:48;;;;;;;5.93;0.90;;;15.50;99.90;;;;;;5067416;28;20098;-86
2022/07/07 05:26:14;;;;;;;6.65;1.10;;;15.50;99.90;;;;;;5073264;28;20080;-86
2022/07/07 05:28:43;;;;;;;9.30;1.08;;;15.50;99.90;;;;;;5073484;28;20074;-84
2022/07/07 05:31:12;;;;;;;10.18;1.10;;;15.40;99.90;;;;;;5063744;28;20566;-89
2022/07/07 05:33:38;;;;;;;6.68;1.15;;;15.40;99.90;;;;;;5064771;28;20045;-87
2022/07/07 05:36:05;;;;;;;11.40;1.63;;;15.40;99.90;;;;;;5073995;28;20048;-88
2022/07/07 05:38:31;;;;;;;6.57;1.17;;;15.40;99.90;;;;;;5059245;28;20047;-88
2022/07/07 05:40:57;;;;;;;4.65;0.90;;;15.40;99.90;;;;;;5053751;28;20055;-86
2022/07/07 05:43:23;;;;;;;9.88;1.55;;;15.40;99.90;;;;;;5060561;28;20434;-87
2022/07/07 05:45:48;;;;;;;10.30;1.60;;;15.40;99.90;;;;;;5092415;28;20040;-89
2022/07/07 05:48:14;;;;;;;6.07;1.30;;;15.40;99.90;;;;;;5082257;28;20106;-88
2022/07/07 05:50:40;;;;;;;12.88;2.08;;;15.40;99.90;;;;;;5060702;28;20077;-90
2022/07/07 05:53:06;;;;;;;12.82;1.52;;;15.40;99.90;;;;;;5063925;28;20399;-91
2022/07/07 05:55:31;;;;;;;11.07;1.55;;;15.40;99.90;;;;;;5066475;28;20058;-90
2022/07/07 05:57:58;;;;;;;7.60;1.60;;;15.40;99.90;;;;;;5059649;28;20044;-92
2022/07/07 06:00:24;;;;;;;9.90;1.80;;;15.40;99.90;;;;;;5070325;28;20472;-90
2022/07/07 06:02:50;;;;;;;8.43;1.63;;;15.40;99.90;;;;;;5062459;28;20044;-91
2022/07/07 06:05:16;;;;;;;11.85;2.33;;;15.50;99.90;;;;;;5073109;28;20385;-91
2022/07/07 06:07:42;;;;;;;9.75;1.67;;;15.50;99.90;;;;;;5067570;28;20062;-91
2022/07/07 06:10:10;;;;;;;8.32;1.90;;;15.50;99.90;;;;;;5069482;28;20045;-90
2022/07/07 06:12:36;;;;;;;10.57;1.63;;;15.50;99.90;;;;;;5052766;28;20045;-80
2022/07/07 06:15:02;;;;;;;9.43;1.50;;;15.50;99.90;;;;;;5052595;28;20378;-80
2022/07/07 06:17:28;;;;;;;23.15;2.80;;;15.60;99.90;;;;;;5067504;28;20415;-81
2022/07/07 06:19:54;;;;;;;12.48;1.70;;;15.60;99.90;;;;;;5071078;28;20052;-80
2022/07/07 06:22:19;;;;;;;12.23;1.95;;;15.60;99.90;;;;;;5068562;28;20387;-83
2022/07/07 06:24:45;;;;;;;10.23;1.45;;;15.60;99.90;;;;;;5060637;28;20131;-83
2022/07/07 06:27:10;;;;;;;6.75;1.90;;;15.70;99.90;;;;;;5087803;28;20055;-82
2022/07/07 06:29:36;;;;;;;9.68;1.90;;;15.60;99.90;;;;;;5072570;28;20055;-84
2022/07/07 06:32:02;;;;;;;14.15;2.50;;;15.70;99.90;;;;;;5072658;28;20036;-84
2022/07/07 06:34:27;;;;;;;8.02;1.55;;;15.80;99.90;;;;;;5065036;28;20143;-83
2022/07/07 06:36:53;;;;;;;11.20;1.73;;;16.00;99.90;;;;;;5063001;28;20052;-83
2022/07/07 06:39:19;;;;;;;10.60;1.60;;;16.20;99.90;;;;;;5071943;28;20457;-83
2022/07/07 06:41:44;;;;;;;9.38;1.40;;;16.40;99.90;;;;;;5092652;27;20055;-84
2022/07/07 06:44:10;;;;;;;7.40;1.23;;;16.60;99.90;;;;;;5074250;28;20598;-84
2022/07/07 06:46:36;;;;;;;6.72;1.52;;;16.80;99.90;;;;;;5080806;28;20048;-84
2022/07/07 06:49:02;;;;;;;8.82;1.83;;;16.80;99.90;;;;;;5069723;28;20032;-83
2022/07/07 06:51:28;;;;;;;7.65;1.20;;;16.90;99.90;;;;;;5055132;28;20056;-82
2022/07/07 06:53:53;;;;;;;5.70;1.05;;;16.80;99.90;;;;;;5056855;28;20111;-81
2022/07/07 06:56:19;;;;;;;6.35;1.25;;;16.80;99.90;;;;;;5059445;28;20040;-82
2022/07/07 06:58:45;;;;;;;5.13;1.13;;;16.80;99.90;;;;;;5056554;28;20397;-81
2022/07/07 07:01:10;;;;;;;11.35;1.30;;;16.70;99.90;;;;;;5064685;28;20086;-81
2022/07/07 07:03:36;;;;;;;5.55;0.80;;;16.70;99.90;;;;;;5068163;28;20098;-81
2022/07/07 07:06:02;;;;;;;6.20;0.82;;;16.80;99.90;;;;;;5068979;28;20052;-81
2022/07/07 07:08:27;;;;;;;4.70;1.15;;;16.80;99.90;;;;;;5090060;28;20049;-83
2022/07/07 07:10:53;;;;;;;6.18;0.80;;;16.90;99.90;;;;;;5054324;28;20041;-86
2022/07/07 07:13:19;;;;;;;4.45;0.63;;;16.80;99.90;;;;;;5056612;28;20088;-84
2022/07/07 07:15:45;;;;;;;6.28;0.55;;;16.60;99.90;;;;;;5068560;28;20041;-81
2022/07/07 07:18:11;;;;;;;4.60;0.95;;;16.50;99.90;;;;;;5056917;28;20049;-82
2022/07/07 07:20:39;;;;;;;3.95;0.65;;;16.50;99.90;;;;;;5065990;28;20384;-81
2022/07/07 07:23:05;;;;;;;3.15;0.50;;;16.60;99.90;;;;;;5057172;28;20037;-81
2022/07/07 07:25:30;;;;;;;3.08;0.60;;;16.70;99.90;;;;;;5093748;28;20052;-83
2022/07/07 07:27:56;;;;;;;5.18;0.60;;;16.80;99.90;;;;;;5059087;28;20043;-84
2022/07/07 07:30:21;;;;;;;4.85;0.98;;;16.90;99.90;;;;;;5057174;28;20050;-82
2022/07/07 07:32:47;;;;;;;5.82;0.60;;;17.00;99.90;;;;;;5058295;28;20094;-82
2022/07/07 07:35:13;;;;;;;3.00;0.43;;;17.10;99.90;;;;;;5085743;27;20036;-83
2022/07/07 07:37:39;;;;;;;4.22;0.70;;;17.30;99.90;;;;;;5062357;28;20084;-85
2022/07/07 07:40:10;;;;;;;5.55;0.60;;;17.40;99.90;;;;;;5064798;28;20536;-82
2022/07/07 07:42:36;;;;;;;4.82;0.60;;;17.60;99.90;;;;;;5055231;28;20120;-82
2022/07/07 07:45:12;;;;;;;3.65;0.50;;;17.80;99.90;;;;;;5061305;28;20037;-82
2022/07/07 07:47:42;;;;;;;4.97;0.70;;;18.00;99.90;;;;;;5051380;28;20049;-82
2022/07/07 07:50:16;;;;;;;3.55;0.60;;;18.20;99.90;;;;;;5053664;28;20052;-82
2022/07/07 07:52:42;;;;;;;3.75;0.65;;;18.30;99.90;;;;;;5047958;28;20051;-81
2022/07/07 07:55:11;;;;;;;4.22;0.60;;;18.50;99.90;;;;;;5062871;28;20482;-82
2022/07/07 07:57:37;;;;;;;2.83;0.70;;;18.60;99.90;;;;;;5055705;28;20037;-84
2022/07/07 08:00:08;;;;;;;2.15;0.47;;;18.40;99.90;;;;;;5071053;28;20160;-82
2022/07/07 08:02:35;;;;;;;4.55;0.60;;;18.20;99.90;;;;;;5060741;28;20450;-82
2022/07/07 08:05:01;;;;;;;6.03;0.75;;;17.90;99.90;;;;;;5056976;28;20053;-86
2022/07/07 08:07:27;;;;;;;3.92;0.52;;;17.50;99.90;;;;;;5059586;28;20106;-81
2022/07/07 08:09:53;;;;;;;5.60;0.73;;;17.30;99.90;;;;;;5062709;28;20040;-81
2022/07/07 08:12:19;;;;;;;5.45;0.75;;;17.10;99.90;;;;;;5055081;28;20416;-81
2022/07/07 08:14:44;;;;;;;5.55;0.65;;;17.00;99.90;;;;;;5057397;28;20539;-81
2022/07/07 08:17:11;;;;;;;4.70;0.80;;;17.00;99.90;;;;;;5058388;28;20087;-81
2022/07/07 08:19:36;;;;;;;3.40;0.60;;;17.10;99.90;;;;;;5052237;28;20382;-81
2022/07/07 08:22:02;;;;;;;3.97;0.70;;;17.10;99.90;;;;;;5056215;28;20047;-81
2022/07/07 08:24:28;;;;;;;6.25;0.75;;;17.20;99.90;;;;;;5063066;28;20044;-82
2022/07/07 08:26:54;;;;;;;6.45;0.50;;;17.20;99.90;;;;;;5060776;28;20777;-82
2022/07/07 08:29:19;;;;;;;6.35;0.95;;;17.50;99.90;;;;;;5057382;28;20498;-81
2022/07/07 08:31:45;;;;;;;5.60;1.00;;;17.30;99.90;;;;;;5061486;28;20462;-81
2022/07/07 08:34:11;;;;;;;7.22;1.33;;;17.40;99.90;;;;;;5055680;28;20048;-82
2022/07/07 08:36:37;;;;;;;6.47;1.50;;;17.40;99.90;;;;;;5055179;28;20131;-80
2022/07/07 08:39:03;;;;;;;4.88;0.80;;;17.50;99.90;;;;;;5056889;28;20537;-81
2022/07/07 08:41:29;;;;;;;5.32;0.77;;;17.50;99.90;;;;;;5063941;28;20075;-82
2022/07/07 08:43:55;;;;;;;3.42;0.85;;;17.40;99.90;;;;;;5063188;28;20097;-82
2022/07/07 08:46:21;;;;;;;3.95;0.85;;;17.30;99.90;;;;;;5089085;28;20053;-81
2022/07/07 08:48:47;;;;;;;4.80;1.23;;;17.60;99.90;;;;;;5063379;28;20040;-81
2022/07/07 08:51:15;;;;;;;6.97;0.90;;;17.50;99.90;;;;;;5056004;28;20037;-81
2022/07/07 08:53:43;;;;;;;8.43;1.20;;;17.50;99.90;;;;;;5057826;28;20044;-81
2022/07/07 08:56:09;;;;;;;7.43;0.90;;;17.60;99.90;;;;;;5082614;28;20076;-81
2022/07/07 08:58:36;;;;;;;9.00;1.23;;;17.70;99.90;;;;;;5047265;28;20076;-81
2022/07/07 09:01:06;;;;;;;14.63;1.35;;;17.80;99.90;;;;;;5059760;28;20048;-81
2022/07/07 09:03:33;;;;;;;8.25;1.40;;;17.80;99.90;;;;;;5062555;28;20051;-81
2022/07/07 09:05:59;;;;;;;8.25;1.17;;;17.80;99.90;;;;;;5063495;28;20043;-82
2022/07/07 09:08:27;;;;;;;7.22;1.23;;;17.70;99.90;;;;;;5053920;28;20041;-83
2022/07/07 09:10:53;;;;;;;9.48;1.63;;;17.70;99.90;;;;;;5051950;28;21390;-82
2022/07/07 09:13:32;;;;;;;7.32;1.52;;;17.80;99.90;;;;;;5052614;28;20052;-82
2022/07/07 09:16:01;;;;;;;6.22;1.55;;;17.90;99.90;;;;;;5057496;28;20048;-81
2022/07/07 09:18:31;;;;;;;8.32;1.30;;;17.80;99.90;;;;;;5059214;28;20099;-81
2022/07/07 09:20:58;;;;;;;7.43;1.92;;;17.80;99.90;;;;;;5054263;28;20044;-83
2022/07/07 09:23:24;;;;;;;6.50;1.13;;;18.00;99.90;;;;;;5088497;28;20400;-82
2022/07/07 09:25:49;;;;;;;6.22;1.30;;;17.60;99.90;;;;;;5058088;28;20045;-82
2022/07/07 09:28:15;;;;;;;3.53;0.70;;;17.50;99.90;;;;;;5062121;28;20047;-83
2022/07/07 09:30:46;;;;;;;3.75;1.20;;;17.50;99.90;;;;;;5057154;28;20484;-82
2022/07/07 09:33:18;;;;;;;4.68;0.95;;;17.60;99.90;;;;;;5054135;28;20045;-82
2022/07/07 09:38:34;;;;;;;4.68;0.90;;;17.70;99.90;;;;;;5054300;28;20045;-82
2022/07/07 09:41:10;;;;;;;6.05;1.20;;;18.00;99.90;;;;;;5056174;28;20131;-82
2022/07/07 09:43:51;;;;;;;5.68;0.80;;;18.30;99.90;;;;;;5063829;28;20052;-82
2022/07/07 09:46:28;;;;;;;7.13;1.50;;;18.40;99.90;;;;;;5064011;28;20044;-83
2022/07/07 09:49:00;;;;;;;6.05;1.10;;;18.50;99.90;;;;;;5091403;27;20048;-84
2022/07/07 09:51:32;;;;;;;5.45;1.17;;;18.70;99.90;;;;;;5056190;28;20049;-83
2022/07/07 09:54:01;;;;;;;6.35;1.17;;;18.80;99.90;;;;;;5058227;28;20041;-83
2022/07/07 09:56:27;;;;;;;3.67;1.08;;;18.80;99.90;;;;;;5056081;28;20063;-92
2022/07/07 09:58:53;;;;;;;5.75;1.00;;;18.70;99.90;;;;;;5096432;28;20052;-87
2022/07/07 10:01:24;;;;;;;8.45;1.15;;;18.40;99.90;;;;;;5065448;28;20032;-83
2022/07/07 10:03:54;;;;;;;6.85;1.40;;;18.30;99.90;;;;;;5057232;28;20139;-81
2022/07/07 10:06:20;;;;;;;6.40;1.17;;;18.00;99.90;;;;;;5062736;28;20045;-81
2022/07/07 10:08:50;;;;;;;4.38;0.85;;;17.90;99.90;;;;;;5066210;28;20049;-82
2022/07/07 10:11:17;;;;;;;7.55;1.48;;;17.80;99.90;;;;;;5064416;28;20044;-81
2022/07/07 10:13:44;;;;;;;5.85;1.05;;;17.80;99.90;;;;;;5063377;28;20049;-81
2022/07/07 10:16:10;;;;;;;6.45;1.38;;;17.90;99.90;;;;;;5067056;28;20051;-81
2022/07/07 10:18:36;;;;;;;8.65;0.90;;;17.90;99.90;;;;;;5055619;28;20560;-81
2022/07/07 10:21:03;;;;;;;5.22;1.25;;;18.40;99.90;;;;;;5065021;28;20075;-81
2022/07/07 10:23:33;;;;;;;2.75;0.60;;;18.20;99.90;;;;;;5060303;28;20041;-83
2022/07/07 10:26:04;;;;;;;4.75;0.80;;;18.50;99.90;;;;;;5063983;28;20036;-82
2022/07/07 10:28:53;;;;;;;4.43;0.80;;;18.40;99.90;;;;;;5067262;28;20162;-82
2022/07/07 10:31:24;;;;;;;7.00;1.10;;;18.30;99.90;;;;;;5061291;28;20056;-82
2022/07/07 10:34:02;;;;;;;4.57;0.98;;;18.30;99.90;;;;;;5094811;28;20041;-82
2022/07/07 10:36:50;;;;;;;10.25;0.93;;;18.40;99.90;;;;;;5094078;28;20056;-83
2022/07/07 10:39:26;;;;;;;6.80;1.02;;;18.50;99.90;;;;;;5069496;28;20052;-82
2022/07/07 10:42:06;;;;;;;6.78;1.30;;;18.50;99.90;;;;;;5062825;28;20549;-83
2022/07/07 10:44:37;;;;;;;8.20;1.50;;;18.50;99.90;;;;;;5088000;28;20041;-82
2022/07/07 10:47:23;;;;;;;10.10;1.70;;;18.30;99.90;;;;;;5054573;28;20052;-82
2022/07/07 10:49:55;;;;;;;13.05;1.75;;;18.00;99.90;;;;;;5046841;28;20076;-82
2022/07/07 10:52:23;;;;;;;9.35;1.55;;;17.80;99.90;;;;;;5058633;28;20060;-82
2022/07/07 10:54:50;;;;;;;14.98;2.25;;;17.70;99.90;;;;;;5062035;28;20040;-83
2022/07/07 10:57:20;;;;;;;9.40;1.27;;;17.70;99.90;;;;;;5099089;28;20048;-84
2022/07/07 10:59:59;;;;;;;15.30;1.80;;;17.90;99.90;;;;;;5066052;28;20400;-82
2022/07/07 11:02:31;;;;;;;9.48;1.20;;;17.90;99.90;;;;;;5089622;28;20098;-82
2022/07/07 11:05:03;;;;;;;12.48;1.60;;;17.90;99.90;;;;;;5057131;28;20488;-82
2022/07/07 11:07:29;;;;;;;11.60;1.58;;;17.90;99.90;;;;;;5068669;28;20407;-82
2022/07/07 11:10:06;;;;;;;11.05;2.10;;;17.80;99.90;;;;;;5062028;28;20041;-81
2022/07/07 11:12:53;;;;;;;12.57;2.28;;;17.70;99.90;;;;;;5051135;28;20493;-82
2022/07/07 11:15:22;;;;;;;11.13;2.08;;;17.70;99.90;;;;;;5062459;28;20053;-81
2022/07/07 11:17:57;;;;;;;14.90;2.05;;;17.80;99.90;;;;;;5087952;28;20044;-81
2022/07/07 11:20:25;;;;;;;10.95;2.13;;;17.80;99.90;;;;;;5091249;27;20053;-82
2022/07/07 11:22:52;;;;;;;12.88;1.70;;;17.90;99.90;;;;;;5057172;28;20442;-81
2022/07/07 11:25:20;;;;;;;12.02;2.20;;;17.90;99.90;;;;;;5053228;28;20041;-83
2022/07/07 11:27:48;;;;;;;13.82;2.03;;;17.80;99.90;;;;;;5055625;28;20041;-81
2022/07/07 11:30:14;;;;;;;15.43;2.15;;;17.70;99.90;;;;;;5057132;28;20051;-82
2022/07/07 11:32:42;;;;;;;11.43;1.98;;;17.60;99.90;;;;;;5061073;28;20036;-82
2022/07/07 11:35:12;;;;;;;7.32;2.20;;;17.50;99.90;;;;;;5056983;28;20055;-91
2022/07/07 11:37:40;;;;;;;11.90;1.95;;;17.50;99.90;;;;;;5058113;28;20075;-84
2022/07/07 11:40:27;;;;;;;13.65;1.95;;;17.50;99.90;;;;;;5061913;28;20552;-83
2022/07/07 11:42:53;;;;;;;10.40;1.88;;;17.50;99.90;;;;;;5056301;28;20050;-84
2022/07/07 11:45:24;;;;;;;8.90;1.48;;;17.50;99.90;;;;;;5065235;28;20534;-84
2022/07/07 11:47:52;;;;;;;12.07;1.83;;;17.50;99.90;;;;;;5053977;28;20044;-82
2022/07/07 11:50:18;;;;;;;6.82;1.23;;;17.60;99.90;;;;;;5061848;28;20037;-85
2022/07/07 11:52:48;;;;;;;10.90;1.83;;;17.80;99.90;;;;;;5060241;28;20123;-82
2022/07/07 11:55:16;;;;;;;12.68;1.95;;;18.00;99.90;;;;;;5065907;28;20044;-84
2022/07/07 11:57:47;;;;;;;11.68;1.40;;;18.10;99.90;;;;;;5096035;28;20051;-83
2022/07/07 12:00:16;;;;;;;10.18;1.90;;;18.20;99.90;;;;;;5061150;28;20041;-83
2022/07/07 12:02:43;;;;;;;8.13;1.52;;;18.30;99.90;;;;;;5085053;28;20045;-83
2022/07/07 12:05:09;;;;;;;9.27;2.08;;;18.30;99.90;;;;;;5085859;28;20408;-82
2022/07/07 12:07:35;;;;;;;7.63;1.30;;;18.40;99.90;;;;;;5056580;28;20044;-86
2022/07/07 12:10:01;;;;;;;8.40;1.40;;;18.50;99.90;;;;;;5061125;28;20139;-85
2022/07/07 12:12:27;;;;;;;8.75;1.75;;;18.60;99.90;;;;;;5056197;28;20072;-88
2022/07/07 12:14:56;;;;;;;8.88;2.00;;;18.70;99.90;;;;;;5089683;28;20484;-88
2022/07/07 12:17:39;;;;;;;9.43;1.42;;;18.80;99.90;;;;;;5067835;27;20071;-89
2022/07/07 12:20:06;;;;;;;9.93;1.50;;;18.90;99.90;;;;;;5089723;28;20059;-85
2022/07/07 12:22:40;;;;;;;9.80;1.55;;;19.00;99.90;;;;;;5060043;28;20544;-88
2022/07/07 12:25:10;;;;;;;13.23;1.70;;;19.10;99.90;;;;;;5063114;28;20083;-85
2022/07/07 12:27:54;;;;;;;10.38;2.25;;;19.10;99.90;;;;;;5059509;27;20064;-83
2022/07/07 12:30:19;;;;;;;11.95;2.10;;;19.00;99.90;;;;;;5065276;28;20127;-87
2022/07/07 12:32:48;;;;;;;12.23;1.83;;;18.90;99.90;;;;;;5054493;28;20127;-86
2022/07/07 12:35:52;;;;;;;10.68;1.88;;;18.80;99.90;;;;;;5060299;28;20446;-83
2022/07/07 12:38:35;;;;;;;13.95;1.80;;;18.60;99.90;;;;;;5051522;28;20416;-83
2022/07/07 12:41:00;;;;;;;12.60;2.05;;;18.80;99.90;;;;;;5057457;28;20039;-82
2022/07/07 12:43:34;;;;;;;12.98;2.05;;;18.50;99.90;;;;;;5053461;28;20396;-85
2022/07/07 12:46:16;;;;;;;13.68;2.22;;;18.50;99.90;;;;;;5061197;28;20048;-84
2022/07/07 12:48:50;;;;;;;7.72;1.90;;;18.50;99.90;;;;;;5086564;28;20150;-83